CW9259 Weather Reports


Display with metric or nautical units.
time (UTC)temp
F
wind
direction
speed
MPH
gust
MPH
rain 1hr
in
rain 24hr
in
rain mn
in
humidity
%
barometer
mb
20240520164600 62 325 0.0 1.0 0.00 0.27 0.27 72 1006.2
20240520163131 62 30 0.0 1.0 0.00 0.27 0.27 76 1006.4
20240520161558 62 81 2.0 4.0 0.00 0.27 0.27 74 1006.7
20240520160125 62 23 3.0 7.0 0.00 0.27 0.27 74 1006.8
20240520154558 63 104 3.0 10.0 0.00 0.27 0.27 74 1006.9
20240520153157 64 87 4.0 9.0 0.00 0.27 0.27 72 1006.6
20240520151559 65 88 0.0 2.0 0.00 0.27 0.27 71 1006.5
20240520150137 65 104 3.0 8.0 0.00 0.27 0.27 72 1006.3
20240520144558 66 78 9.0 15.0 0.00 0.27 0.27 69 1006.0
20240520143141 67 42 1.0 5.0 0.00 0.27 0.27 62 1005.9
20240520141607 67 94 4.0 7.0 0.00 0.27 0.27 62 1006.2
20240520140132 66 250 3.0 15.0 0.00 0.27 0.27 62 1006.2
20240520134559 64 333 11.0 21.0 0.00 0.27 0.27 63 1006.1
20240520133130 62 284 12.0 24.0 0.00 0.27 0.27 68 1006.3
20240520131605 61 350 13.0 24.0 0.05 0.27 0.27 75 1006.7
20240520130135 59 321 17.0 29.0 0.20 0.27 0.27 80 1007.0
20240520124600 57 355 9.0 17.0 0.25 0.27 0.27 87 1007.7
20240520123140 55 11 7.0 14.0 0.25 0.27 0.27 86 1008.2
20240520121559 56 220 10.0 24.0 0.19 0.20 0.20 83 1008.6
20240520120135 62 243 9.0 26.0 0.06 0.07 0.07 74 1007.5
20240520114612 65 292 6.0 10.0 0.00 0.02 0.02 68 1007.1
20240520113140 66 265 2.0 8.0 0.00 0.02 0.02 71 1007.2
20240520111606 66 265 5.0 9.0 0.00 0.02 0.02 70 1007.4
20240520110127 67 275 3.0 9.0 0.00 0.02 0.02 69 1007.5
20240520104558 66 303 3.0 6.0 0.00 0.02 0.02 70 1007.5
20240520103140 66 5 4.0 6.0 0.00 0.02 0.02 70 1007.6
20240520101600 65 319 4.0 9.0 0.00 0.02 0.02 72 1007.9
20240520100137 65 360 5.0 9.0 0.00 0.02 0.02 72 1008.0
20240520094558 65 10 4.0 11.0 0.00 0.02 0.02 71 1008.0
20240520093120 65 9 7.0 12.0 0.00 0.02 0.02 72 1008.1
20240520091557 65 330 4.0 8.0 0.00 0.02 0.02 73 1008.0
20240520090131 65 28 2.0 6.0 0.00 0.02 0.02 72 1008.2
20240520084604 67 344 7.0 11.0 0.00 0.02 0.02 70 1008.2
20240520083137 67 81 2.0 6.0 0.00 0.02 0.02 70 1008.1
20240520081606 66 128 0.0 5.0 0.00 0.02 0.02 72 1008.3
20240520080002 65 165 0.0 2.0 0.00 0.02 0.02 74 1008.4
20240520074559 64 295 0.0 5.0 0.00 0.02 0.02 78 1008.0
20240520073129 63 19 2.0 4.0 0.00 0.02 0.02 79 1008.0
20240520071606 62 90 1.0 3.0 0.00 0.02 0.02 81 1008.1
20240520070128 61 63 2.0 3.0 0.00 0.02 0.02 81 1007.9
20240520064558 61 42 0.0 3.0 0.00 0.02 0.02 79 1007.9
20240520063129 61 344 3.0 5.0 0.00 0.02 0.02 81 1007.7
20240520061558 61 360 5.0 9.0 0.00 0.02 0.02 82 1007.8
20240520060127 60 28 3.0 5.0 0.00 0.02 0.02 84 1007.9
20240520054604 59 163 1.0 5.0 0.00 0.02 0.02 84 1008.0
20240520053139 59 172 3.0 7.0 0.00 0.02 0.02 83 1007.9
20240520051602 58 141 3.0 5.0 0.00 0.02 0.02 85 1007.7
20240520050128 56 346 0.0 3.0 0.00 0.02 0.02 88 1007.5
20240520044559 55 246 0.0 1.0 0.00 0.02 0.02 88 1007.5
20240520043130 55 246 2.0 3.0 0.00 0.02 0.02 87 1007.5
20240520041559 55 311 0.0 3.0 0.00 0.02 0.02 86 1007.5
20240520040001 55 55 1.0 3.0 0.00 0.02 0.02 86 1007.6
20240520034600 55 46 0.0 3.0 0.00 0.02 0.02 86 1007.7
20240520033140 56 229 1.0 6.0 0.00 0.02 0.02 85 1007.7
20240520031601 55 293 0.0 0.0 0.00 0.02 0.02 89 1007.7
20240520030000 55 302 0.0 0.0 0.00 0.02 0.02 89 1007.7
20240520024559 55 290 0.0 0.0 0.01 0.02 0.02 90 1007.7
20240520023134 55 323 0.0 0.0 0.01 0.02 0.02 90 1007.8
20240520021604 55 336 0.0 0.0 0.01 0.02 0.02 90 1008.0
20240520020001 55 254 0.0 0.0 0.01 0.02 0.02 90 1008.0
20240520014606 56 254 0.0 0.0 0.00 0.01 0.01 89 1007.9
20240520013135 56 265 0.0 0.0 0.00 0.01 0.01 89 1007.9
20240520011608 56 223 0.0 3.0 0.00 0.01 0.01 89 1008.1
20240520010128 56 223 3.0 4.0 0.00 0.01 0.01 89 1008.1
20240520004559 56 104 0.0 3.0 0.00 0.01 0.01 89 1008.3
20240520003140 56 159 6.0 9.0 0.00 0.01 0.01 86 1008.5
20240520001600 56 169 1.0 4.0 0.00 0.01 0.01 88 1008.4
20240520000135 57 176 0.0 2.0 0.00 0.01 0.01 87 1008.6
20240519234603 58 306 2.0 10.0 0.00 0.01 0.01 83 1008.6
20240519233120 57 206 1.0 4.0 0.00 0.01 0.01 87 1008.7
20240519231605 57 38 0.0 3.0 0.00 0.01 0.01 89 1008.9
20240519230140 57 267 0.0 4.0 0.01 0.01 0.01 91 1009.1
20240519224559 57 127 0.0 4.0 0.01 0.01 0.01 91 1009.1
20240519223123 58 340 0.0 0.0 0.01 0.01 0.01 89 1009.0
20240519221559 58 340 0.0 2.0 0.01 0.01 0.01 88 1009.1
20240519220005 59 340 0.0 1.0 0.00 0.00 0.00 86 1009.0
20240519214606 58 342 2.0 4.0 0.00 0.00 0.00 85 1008.9
20240519213134 58 292 0.0 0.0 0.00 0.00 0.00 86 1008.8
20240519211559 59 294 0.0 0.0 0.00 0.00 0.00 85 1008.8
20240519210137 59 294 0.0 0.0 0.00 0.00 0.00 84 1008.8
20240519204600 59 292 0.0 0.0 0.00 0.00 0.00 85 1008.8
20240519203130 59 292 0.0 0.0 0.00 0.00 0.00 84 1008.7
20240519201606 59 292 0.0 0.0 0.00 0.00 0.00 83 1008.5
20240519200135 60 292 0.0 0.0 0.00 0.00 0.00 82 1008.3
20240519194604 61 302 0.0 0.0 0.00 0.00 0.00 81 1008.0
20240519193127 62 302 0.0 2.0 0.00 0.00 0.00 80 1007.9
20240519191608 63 296 0.0 3.0 0.00 0.00 0.00 77 1007.7
20240519190136 64 325 0.0 8.0 0.00 0.00 0.00 76 1007.6
20240519184559 65 348 0.0 0.0 0.00 0.00 0.00 75 1007.6
20240519183137 65 355 0.0 3.0 0.00 0.00 0.00 75 1007.5
20240519181559 66 327.0 255.0 0.00 0.00 0.00 73 1007.3
20240519180132 66 327.0 255.0 0.00 0.00 0.00 73 1007.4
20240519174603 66 327.0 255.0 0.00 0.00 0.00 77 1007.3
20240519173140 67 327.0 255.0 0.00 0.00 0.00 72 1007.3
20240519171635 68 327.0 255.0 0.00 0.00 0.00 68 1007.3
20240519170000 68 327.0 255.0 0.00 0.00 0.00 66 1007.3